sensor_id;sensor_type;location;lat;lon;timestamp;pressure;altitude;pressure_sealevel;temperature;humidity
56514;BME280;62152;52.078;8.414;2023-01-30T00:03:59;100047.88;;;16.45;58.32
56514;BME280;62152;52.078;8.414;2023-01-30T00:08:01;100061.56;;;16.45;58.38
56514;BME280;62152;52.078;8.414;2023-01-30T00:12:03;100056.09;;;16.45;58.01
56514;BME280;62152;52.078;8.414;2023-01-30T00:16:05;100048.69;;;16.46;57.88
56514;BME280;62152;52.078;8.414;2023-01-30T00:20:08;100048.25;;;16.44;58.30
56514;BME280;62152;52.078;8.414;2023-01-30T00:24:11;100025.56;;;16.43;58.40
56514;BME280;62152;52.078;8.414;2023-01-30T00:28:12;100029.44;;;16.42;58.00
56514;BME280;62152;52.078;8.414;2023-01-30T00:32:14;100040.03;;;16.44;58.06
56514;BME280;62152;52.078;8.414;2023-01-30T00:36:15;100035.34;;;16.44;58.05
56514;BME280;62152;52.078;8.414;2023-01-30T00:40:18;100035.72;;;16.42;57.98
56514;BME280;62152;52.078;8.414;2023-01-30T00:44:18;100040.03;;;16.44;58.38
56514;BME280;62152;52.078;8.414;2023-01-30T00:48:19;100024.78;;;16.42;58.50
56514;BME280;62152;52.078;8.414;2023-01-30T00:52:20;100016.56;;;16.42;58.04
56514;BME280;62152;52.078;8.414;2023-01-30T00:56:23;100014.97;;;16.41;58.32
56514;BME280;62152;52.078;8.414;2023-01-30T01:00:24;100008.34;;;16.42;57.98
56514;BME280;62152;52.078;8.414;2023-01-30T01:04:25;100014.97;;;16.41;58.14
56514;BME280;62152;52.078;8.414;2023-01-30T01:08:26;99999.34;;;16.42;58.19
56514;BME280;62152;52.078;8.414;2023-01-30T01:12:28;99981.34;;;16.41;58.22
56514;BME280;62152;52.078;8.414;2023-01-30T01:16:31;99984.06;;;16.41;58.20
56514;BME280;62152;52.078;8.414;2023-01-30T01:20:32;99986.03;;;16.40;58.01
56514;BME280;62152;52.078;8.414;2023-01-30T01:24:33;99979.72;;;16.40;58.31
56514;BME280;62152;52.078;8.414;2023-01-30T01:28:36;99983.63;;;16.39;57.86
56514;BME280;62152;52.078;8.414;2023-01-30T01:32:37;99971.50;;;16.40;58.20
56514;BME280;62152;52.078;8.414;2023-01-30T01:36:38;99950.78;;;16.39;58.10
56514;BME280;62152;52.078;8.414;2023-01-30T01:40:39;99949.97;;;16.38;57.98
56514;BME280;62152;52.078;8.414;2023-01-30T01:45:01;99939.03;;;16.38;58.33
56514;BME280;62152;52.078;8.414;2023-01-30T01:49:16;99934.34;;;16.39;57.89
56514;BME280;62152;52.078;8.414;2023-01-30T01:53:27;99940.97;;;16.38;57.92
56514;BME280;62152;52.078;8.414;2023-01-30T01:57:39;99931.97;;;16.37;57.84
56514;BME280;62152;52.078;8.414;2023-01-30T02:01:48;99924.56;;;16.38;58.27
56514;BME280;62152;52.078;8.414;2023-01-30T02:05:57;99919.44;;;16.36;58.09
56514;BME280;62152;52.078;8.414;2023-01-30T02:10:03;99905.41;;;16.38;58.19
56514;BME280;62152;52.078;8.414;2023-01-30T02:14:07;99899.94;;;16.38;57.93
56514;BME280;62152;52.078;8.414;2023-01-30T02:18:11;99901.09;;;16.37;58.04
56514;BME280;62152;52.078;8.414;2023-01-30T02:22:35;99880.34;;;16.36;58.24
56514;BME280;62152;52.078;8.414;2023-01-30T02:27:14;99854.56;;;16.37;57.87
56514;BME280;62152;52.078;8.414;2023-01-30T02:31:34;99843.59;;;16.37;58.19
56514;BME280;62152;52.078;8.414;2023-01-30T02:35:53;99836.56;;;16.36;57.85
56514;BME280;62152;52.078;8.414;2023-01-30T02:40:21;99823.66;;;16.36;57.81
56514;BME280;62152;52.078;8.414;2023-01-30T02:44:43;99829.13;;;16.36;57.80
56514;BME280;62152;52.078;8.414;2023-01-30T02:48:55;99820.91;;;16.36;58.01
56514;BME280;62152;52.078;8.414;2023-01-30T02:53:04;99806.03;;;16.34;57.86
56514;BME280;62152;52.078;8.414;2023-01-30T02:57:18;99791.97;;;16.35;57.84
56514;BME280;62152;52.078;8.414;2023-01-30T03:01:53;99777.88;;;16.33;57.64
56514;BME280;62152;52.078;8.414;2023-01-30T03:06:30;99777.50;;;16.35;57.84
56514;BME280;62152;52.078;8.414;2023-01-30T03:10:50;99779.44;;;16.34;57.90
56514;BME280;62152;52.078;8.414;2023-01-30T03:15:03;99784.91;;;16.34;58.20
56514;BME280;62152;52.078;8.414;2023-01-30T03:19:10;99777.88;;;16.33;58.10
56514;BME280;62152;52.078;8.414;2023-01-30T03:23:13;99782.97;;;16.35;58.16
56514;BME280;62152;52.078;8.414;2023-01-30T03:27:15;99767.34;;;16.35;57.76
56514;BME280;62152;52.078;8.414;2023-01-30T03:31:16;99767.72;;;16.34;57.59
56514;BME280;62152;52.078;8.414;2023-01-30T03:35:17;99751.28;;;16.34;57.99
56514;BME280;62152;52.078;8.414;2023-01-30T03:39:19;99734.88;;;16.34;57.98
56514;BME280;62152;52.078;8.414;2023-01-30T03:43:22;99739.56;;;16.33;57.59
56514;BME280;62152;52.078;8.414;2023-01-30T03:47:24;99723.13;;;16.33;57.65
56514;BME280;62152;52.078;8.414;2023-01-30T03:51:26;99723.91;;;16.34;57.97
56514;BME280;62152;52.078;8.414;2023-01-30T03:55:28;99707.50;;;16.34;57.96
56514;BME280;62152;52.078;8.414;2023-01-30T03:59:29;99716.84;;;16.33;57.70
56514;BME280;62152;52.078;8.414;2023-01-30T04:03:38;99708.63;;;16.33;58.13
56514;BME280;62152;52.078;8.414;2023-01-30T04:07:39;99714.09;;;16.33;58.08
56514;BME280;62152;52.078;8.414;2023-01-30T04:11:44;99702.38;;;16.32;57.54
56514;BME280;62152;52.078;8.414;2023-01-30T04:15:45;99706.72;;;16.33;57.95
56514;BME280;62152;52.078;8.414;2023-01-30T04:20:24;99705.91;;;16.33;57.91
56514;BME280;62152;52.078;8.414;2023-01-30T04:24:29;99712.22;;;16.37;57.69
56514;BME280;62152;52.078;8.414;2023-01-30T04:28:32;99692.66;;;16.35;57.97
56514;BME280;62152;52.078;8.414;2023-01-30T04:32:34;99710.66;;;16.36;57.94
56514;BME280;62152;52.078;8.414;2023-01-30T04:36:35;99714.56;;;16.35;58.04
56514;BME280;62152;52.078;8.414;2023-01-30T04:40:36;99702.44;;;16.36;58.10
56514;BME280;62152;52.078;8.414;2023-01-30T04:44:38;99701.25;;;16.33;58.10
56514;BME280;62152;52.078;8.414;2023-01-30T04:48:45;99698.13;;;16.35;57.79
56514;BME280;62152;52.078;8.414;2023-01-30T04:52:45;99691.09;;;16.34;57.83
56514;BME280;62152;52.078;8.414;2023-01-30T04:56:47;99682.78;;;16.30;57.89
56514;BME280;62152;52.078;8.414;2023-01-30T05:00:49;99682.25;;;15.98;57.38
56514;BME280;62152;52.078;8.414;2023-01-30T05:04:50;99666.16;;;15.93;57.66
56514;BME280;62152;52.078;8.414;2023-01-30T05:08:52;99660.13;;;16.30;55.84
56514;BME280;62152;52.078;8.414;2023-01-30T05:12:54;99656.13;;;16.50;55.72
56514;BME280;62152;52.078;8.414;2023-01-30T05:16:56;99657.00;;;16.54;55.39
56514;BME280;62152;52.078;8.414;2023-01-30T05:21:03;99654.19;;;16.51;55.86
56514;BME280;62152;52.078;8.414;2023-01-30T05:25:05;99656.50;;;16.49;55.96
56514;BME280;62152;52.078;8.414;2023-01-30T05:29:09;99656.44;;;16.45;56.50
56514;BME280;62152;52.078;8.414;2023-01-30T05:33:11;99664.13;;;16.36;56.72
56514;BME280;62152;52.078;8.414;2023-01-30T05:37:12;99677.75;;;16.32;57.06
56514;BME280;62152;52.078;8.414;2023-01-30T05:41:15;99679.28;;;16.30;56.85
56514;BME280;62152;52.078;8.414;2023-01-30T05:45:17;99667.53;;;16.29;56.96
56514;BME280;62152;52.078;8.414;2023-01-30T05:49:19;99691.78;;;16.31;56.59
56514;BME280;62152;52.078;8.414;2023-01-30T05:53:21;99693.34;;;16.28;56.43
56514;BME280;62152;52.078;8.414;2023-01-30T05:57:23;99688.66;;;16.29;56.93
56514;BME280;62152;52.078;8.414;2023-01-30T06:01:25;99680.81;;;16.27;57.17
56514;BME280;62152;52.078;8.414;2023-01-30T06:05:28;99674.53;;;16.27;56.79
56514;BME280;62152;52.078;8.414;2023-01-30T06:09:29;99674.53;;;16.27;56.68
56514;BME280;62152;52.078;8.414;2023-01-30T06:13:30;99678.84;;;16.28;56.84
56514;BME280;62152;52.078;8.414;2023-01-30T06:17:31;99674.53;;;16.27;56.82
56514;BME280;62152;52.078;8.414;2023-01-30T06:21:33;99676.13;;;16.28;56.86
56514;BME280;62152;52.078;8.414;2023-01-30T06:25:34;99673.72;;;16.26;56.87
56514;BME280;62152;52.078;8.414;2023-01-30T06:29:35;99680.03;;;16.27;56.89
56514;BME280;62152;52.078;8.414;2023-01-30T06:33:36;99696.06;;;16.28;57.11
56514;BME280;62152;52.078;8.414;2023-01-30T06:37:38;99679.19;;;16.26;56.85
56514;BME280;62152;52.078;8.414;2023-01-30T06:41:39;99701.91;;;16.27;57.00
56514;BME280;62152;52.078;8.414;2023-01-30T06:45:40;99703.03;;;16.26;56.77
56514;BME280;62152;52.078;8.414;2023-01-30T06:49:41;99711.25;;;16.26;56.94
56514;BME280;62152;52.078;8.414;2023-01-30T06:53:43;99707.72;;;16.25;56.98
56514;BME280;62152;52.078;8.414;2023-01-30T06:57:44;99706.16;;;16.24;57.10
56514;BME280;62152;52.078;8.414;2023-01-30T07:01:46;99704.19;;;16.25;56.76
56514;BME280;62152;52.078;8.414;2023-01-30T07:05:47;99705.00;;;16.25;57.01
56514;BME280;62152;52.078;8.414;2023-01-30T07:09:49;99697.16;;;16.24;57.01
56514;BME280;62152;52.078;8.414;2023-01-30T07:13:50;99694.41;;;16.24;57.15
56514;BME280;62152;52.078;8.414;2023-01-30T07:17:51;99700.69;;;16.24;56.77
56514;BME280;62152;52.078;8.414;2023-01-30T07:21:52;99703.41;;;16.24;56.85
56514;BME280;62152;52.078;8.414;2023-01-30T07:25:54;99709.69;;;16.25;57.00
56514;BME280;62152;52.078;8.414;2023-01-30T07:29:55;99719.03;;;16.24;57.22
56514;BME280;62152;52.078;8.414;2023-01-30T07:33:55;99726.47;;;16.23;56.94
56514;BME280;62152;52.078;8.414;2023-01-30T07:37:57;99719.03;;;16.24;56.95
56514;BME280;62152;52.078;8.414;2023-01-30T07:42:00;99716.69;;;16.22;57.15
56514;BME280;62152;52.078;8.414;2023-01-30T07:46:02;99746.41;;;16.24;56.75
56514;BME280;62152;52.078;8.414;2023-01-30T07:50:04;99751.88;;;16.24;57.22
56514;BME280;62152;52.078;8.414;2023-01-30T07:54:05;99726.47;;;16.23;57.35
56514;BME280;62152;52.078;8.414;2023-01-30T07:58:11;99729.19;;;16.23;56.92
56514;BME280;62152;52.078;8.414;2023-01-30T08:02:12;99729.97;;;16.24;57.03
56514;BME280;62152;52.078;8.414;2023-01-30T08:06:13;99738.63;;;16.26;56.92
56514;BME280;62152;52.078;8.414;2023-01-30T08:10:15;99749.63;;;16.29;56.64
56514;BME280;62152;52.078;8.414;2023-01-30T08:14:18;99744.88;;;16.26;56.73
56514;BME280;62152;52.078;8.414;2023-01-30T08:18:18;99743.28;;;16.25;56.73
56514;BME280;62152;52.078;8.414;2023-01-30T08:22:19;99732.34;;;16.25;56.78
56514;BME280;62152;52.078;8.414;2023-01-30T08:26:20;99737.81;;;16.25;56.62
56514;BME280;62152;52.078;8.414;2023-01-30T08:30:23;99738.63;;;16.26;56.59
56514;BME280;62152;52.078;8.414;2023-01-30T08:34:24;99746.41;;;16.24;56.71
56514;BME280;62152;52.078;8.414;2023-01-30T08:38:25;99746.41;;;16.24;56.70
56514;BME280;62152;52.078;8.414;2023-01-30T08:42:26;99749.16;;;16.24;56.69
56514;BME280;62152;52.078;8.414;2023-01-30T08:46:28;99761.25;;;16.23;56.95
56514;BME280;62152;52.078;8.414;2023-01-30T08:50:29;99768.66;;;16.22;57.01
56514;BME280;62152;52.078;8.414;2023-01-30T08:54:30;99766.72;;;16.23;56.77
56514;BME280;62152;52.078;8.414;2023-01-30T08:58:31;99765.94;;;16.22;56.67
56514;BME280;62152;52.078;8.414;2023-01-30T09:02:33;99776.09;;;16.22;56.65
56514;BME280;62152;52.078;8.414;2023-01-30T09:06:34;99762.81;;;16.24;56.58
56514;BME280;62152;52.078;8.414;2023-01-30T09:10:35;99762.81;;;16.24;56.98
56514;BME280;62152;52.078;8.414;2023-01-30T09:14:36;99762.81;;;16.24;56.59
56514;BME280;62152;52.078;8.414;2023-01-30T09:18:40;99756.56;;;16.23;57.01
56514;BME280;62152;52.078;8.414;2023-01-30T09:22:42;99764.84;;;16.27;56.86
56514;BME280;62152;52.078;8.414;2023-01-30T09:26:43;99779.25;;;16.24;56.78
56514;BME280;62152;52.078;8.414;2023-01-30T09:30:44;99774.56;;;16.24;56.50
56514;BME280;62152;52.078;8.414;2023-01-30T09:34:46;99780.81;;;16.25;56.82
56514;BME280;62152;52.078;8.414;2023-01-30T09:38:47;99770.66;;;16.25;56.48
56514;BME280;62152;52.078;8.414;2023-01-30T09:43:13;99783.13;;;16.23;56.79
56514;BME280;62152;52.078;8.414;2023-01-30T09:47:33;99772.19;;;16.23;56.60
56514;BME280;62152;52.078;8.414;2023-01-30T09:51:54;99773.78;;;16.24;56.73
56514;BME280;62152;52.078;8.414;2023-01-30T09:55:58;99778.44;;;16.23;56.59
56514;BME280;62152;52.078;8.414;2023-01-30T10:00:03;99775.72;;;16.23;56.48
56514;BME280;62152;52.078;8.414;2023-01-30T10:04:20;99781.97;;;16.24;56.86
56514;BME280;62152;52.078;8.414;2023-01-30T10:08:48;99790.19;;;16.24;56.39
56514;BME280;62152;52.078;8.414;2023-01-30T10:13:05;99789.41;;;16.23;56.75
56514;BME280;62152;52.078;8.414;2023-01-30T10:17:32;99790.97;;;16.24;56.28
56514;BME280;62152;52.078;8.414;2023-01-30T10:21:54;99799.56;;;16.23;56.68
56514;BME280;62152;52.078;8.414;2023-01-30T10:26:04;99805.81;;;16.23;56.43
56514;BME280;62152;52.078;8.414;2023-01-30T10:30:15;99790.19;;;16.24;56.49
56514;BME280;62152;52.078;8.414;2023-01-30T10:34:21;99774.94;;;16.23;56.48
56514;BME280;62152;52.078;8.414;2023-01-30T10:38:34;99776.50;;;16.24;56.57
56514;BME280;62152;52.078;8.414;2023-01-30T10:42:48;99785.50;;;16.24;56.83
56514;BME280;62152;52.078;8.414;2023-01-30T10:47:12;99780.41;;;16.23;56.44
56514;BME280;62152;52.078;8.414;2023-01-30T10:51:40;99794.09;;;16.23;56.39
56514;BME280;62152;52.078;8.414;2023-01-30T10:55:54;99788.59;;;16.23;56.36
56514;BME280;62152;52.078;8.414;2023-01-30T11:00:05;99778.03;;;16.21;56.65
56514;BME280;62152;52.078;8.414;2023-01-30T11:04:24;99765.56;;;16.24;56.05
56514;BME280;62152;52.078;8.414;2023-01-30T11:08:30;99773.78;;;16.24;56.50
56514;BME280;62152;52.078;8.414;2023-01-30T11:12:33;99778.09;;;16.25;56.20
56514;BME280;62152;52.078;8.414;2023-01-30T11:16:44;99762.81;;;16.24;56.41
56514;BME280;62152;52.078;8.414;2023-01-30T11:21:00;99769.44;;;16.23;56.54
56514;BME280;62152;52.078;8.414;2023-01-30T11:25:12;99768.28;;;16.24;56.43
56514;BME280;62152;52.078;8.414;2023-01-30T11:29:25;99750.72;;;16.25;56.19
56514;BME280;62152;52.078;8.414;2023-01-30T11:33:33;99758.94;;;16.25;56.75
56514;BME280;62152;52.078;8.414;2023-01-30T11:37:38;99742.09;;;16.23;56.22
56514;BME280;62152;52.078;8.414;2023-01-30T11:41:41;99744.84;;;16.23;56.46
56514;BME280;62152;52.078;8.414;2023-01-30T11:45:46;99723.72;;;16.23;55.81
56514;BME280;62152;52.078;8.414;2023-01-30T11:49:53;99725.69;;;16.23;56.25
56514;BME280;62152;52.078;8.414;2023-01-30T11:53:58;99729.19;;;16.23;56.51
56514;BME280;62152;52.078;8.414;2023-01-30T11:58:07;99741.31;;;16.22;56.15
56514;BME280;62152;52.078;8.414;2023-01-30T12:02:17;99744.47;;;16.24;55.94
56514;BME280;62152;52.078;8.414;2023-01-30T12:06:24;99735.47;;;16.24;56.45
56514;BME280;62152;52.078;8.414;2023-01-30T12:10:30;99746.41;;;16.24;56.47
56514;BME280;62152;52.078;8.414;2023-01-30T12:14:37;99746.81;;;16.26;56.34
56514;BME280;62152;52.078;8.414;2023-01-30T12:18:49;99726.88;;;16.25;56.08
56514;BME280;62152;52.078;8.414;2023-01-30T12:23:08;99735.88;;;16.26;55.75
56514;BME280;62152;52.078;8.414;2023-01-30T12:27:23;99756.94;;;16.22;56.06
56514;BME280;62152;52.078;8.414;2023-01-30T12:31:34;99753.41;;;16.21;56.11
56514;BME280;62152;52.078;8.414;2023-01-30T12:35:53;99741.22;;;16.19;56.21
56514;BME280;62152;52.078;8.414;2023-01-30T12:40:17;99760.03;;;16.20;56.16
56514;BME280;62152;52.078;8.414;2023-01-30T12:44:43;99796.75;;;16.19;56.12
56514;BME280;62152;52.078;8.414;2023-01-30T12:49:15;99827.66;;;16.20;56.31
56514;BME280;62152;52.078;8.414;2023-01-30T12:53:39;99810.41;;;16.19;56.49
56514;BME280;62152;52.078;8.414;2023-01-30T12:57:55;99801.41;;;16.19;55.89
56514;BME280;62152;52.078;8.414;2023-01-30T13:02:26;99804.59;;;16.21;56.10
56514;BME280;62152;52.078;8.414;2023-01-30T13:07:00;99807.75;;;16.23;55.78
56514;BME280;62152;52.078;8.414;2023-01-30T13:11:26;99806.59;;;16.24;55.64
56514;BME280;62152;52.078;8.414;2023-01-30T13:15:56;99805.03;;;16.23;56.15
56514;BME280;62152;52.078;8.414;2023-01-30T13:20:17;99800.72;;;16.22;56.21
56514;BME280;62152;52.078;8.414;2023-01-30T13:24:42;99804.59;;;16.21;55.79
56514;BME280;62152;52.078;8.414;2023-01-30T13:28:55;99807.34;;;16.21;56.16
56514;BME280;62152;52.078;8.414;2023-01-30T13:33:08;99835.88;;;16.20;55.82
56514;BME280;62152;52.078;8.414;2023-01-30T13:37:16;99849.53;;;16.20;56.31
56514;BME280;62152;52.078;8.414;2023-01-30T13:41:28;99851.91;;;16.21;56.14
56514;BME280;62152;52.078;8.414;2023-01-30T13:45:36;99866.38;;;16.22;56.00
56514;BME280;62152;52.078;8.414;2023-01-30T13:49:49;99858.19;;;16.22;56.23
56514;BME280;62152;52.078;8.414;2023-01-30T13:54:08;99864.81;;;16.21;55.95
56514;BME280;62152;52.078;8.414;2023-01-30T13:58:37;99862.84;;;16.21;56.15
56514;BME280;62152;52.078;8.414;2023-01-30T14:03:14;99866.81;;;16.24;56.17
56514;BME280;62152;52.078;8.414;2023-01-30T14:07:29;99876.19;;;16.23;55.91
56514;BME280;62152;52.078;8.414;2023-01-30T14:11:39;99882.00;;;16.21;56.11
56514;BME280;62152;52.078;8.414;2023-01-30T14:15:53;99896.47;;;16.22;55.94
56514;BME280;62152;52.078;8.414;2023-01-30T14:19:59;99901.97;;;16.22;55.98
56514;BME280;62152;52.078;8.414;2023-01-30T14:24:04;99911.75;;;16.23;55.96
56514;BME280;62152;52.078;8.414;2023-01-30T14:32:52;99936.38;;;16.23;55.89
56514;BME280;62152;52.078;8.414;2023-01-30T14:36:54;99945.75;;;16.22;56.37
56514;BME280;62152;52.078;8.414;2023-01-30T14:41:25;99955.09;;;16.21;56.01
56514;BME280;62152;52.078;8.414;2023-01-30T14:45:46;99959.41;;;16.22;55.72
56514;BME280;62152;52.078;8.414;2023-01-30T14:49:49;99952.38;;;16.21;55.65
56514;BME280;62152;52.078;8.414;2023-01-30T14:53:54;99987.94;;;16.21;55.36
56514;BME280;62152;52.078;8.414;2023-01-30T14:58:01;99990.22;;;16.19;55.93
56514;BME280;62152;52.078;8.414;2023-01-30T15:02:18;100002.31;;;16.18;55.68
56514;BME280;62152;52.078;8.414;2023-01-30T15:06:23;100005.84;;;16.18;56.18
56514;BME280;62152;52.078;8.414;2023-01-30T15:15:19;100046.47;;;16.16;55.83
56514;BME280;62152;52.078;8.414;2023-01-30T15:19:43;100059.78;;;16.18;55.75
56514;BME280;62152;52.078;8.414;2023-01-30T15:24:06;100056.25;;;16.17;55.90
56514;BME280;62152;52.078;8.414;2023-01-30T15:28:45;100070.72;;;16.18;56.01
56514;BME280;62152;52.078;8.414;2023-01-30T15:33:14;100081.25;;;16.16;55.67
56514;BME280;62152;52.078;8.414;2023-01-30T15:37:29;100089.25;;;16.24;56.03
56514;BME280;62152;52.078;8.414;2023-01-30T15:41:36;100106.03;;;16.23;55.66
56514;BME280;62152;52.078;8.414;2023-01-30T15:45:46;100099.69;;;16.19;56.01
56514;BME280;62152;52.078;8.414;2023-01-30T15:50:05;100118.84;;;16.19;56.17
56514;BME280;62152;52.078;8.414;2023-01-30T15:54:10;100132.09;;;16.17;56.13
56514;BME280;62152;52.078;8.414;2023-01-30T15:58:19;100131.66;;;16.14;55.64
56514;BME280;62152;52.078;8.414;2023-01-30T16:02:28;100144.97;;;16.16;56.12
56514;BME280;62152;52.078;8.414;2023-01-30T16:06:34;100155.13;;;16.16;55.79
56514;BME280;62152;52.078;8.414;2023-01-30T16:10:43;100160.97;;;16.14;56.06
56514;BME280;62152;52.078;8.414;2023-01-30T16:14:45;100167.59;;;16.13;56.21
56514;BME280;62152;52.078;8.414;2023-01-30T16:18:51;100175.44;;;16.14;55.93
56514;BME280;62152;52.078;8.414;2023-01-30T16:22:55;100186.38;;;16.14;55.93
56514;BME280;62152;52.078;8.414;2023-01-30T16:26:58;100193.00;;;16.13;55.87
56514;BME280;62152;52.078;8.414;2023-01-30T16:31:05;100191.84;;;16.14;55.85
56514;BME280;62152;52.078;8.414;2023-01-30T16:35:23;100206.69;;;16.13;56.01
56514;BME280;62152;52.078;8.414;2023-01-30T16:39:31;100208.94;;;16.11;56.21
56514;BME280;62152;52.078;8.414;2023-01-30T16:43:36;100210.53;;;16.12;55.88
56514;BME280;62152;52.078;8.414;2023-01-30T16:47:37;100216.84;;;16.13;55.74
56514;BME280;62152;52.078;8.414;2023-01-30T16:51:39;100225.03;;;16.13;55.91
56514;BME280;62152;52.078;8.414;2023-01-30T16:55:55;100236.31;;;16.11;56.15
56514;BME280;62152;52.078;8.414;2023-01-30T16:59:58;100243.38;;;16.12;55.99
56514;BME280;62152;52.078;8.414;2023-01-30T17:04:02;100249.38;;;16.18;55.93
56514;BME280;62152;52.078;8.414;2023-01-30T17:08:45;100258.13;;;16.24;56.35
56514;BME280;62152;52.078;8.414;2023-01-30T17:12:49;100261.47;;;16.17;56.43
56514;BME280;62152;52.078;8.414;2023-01-30T17:17:01;100273.94;;;16.14;56.34
56514;BME280;62152;52.078;8.414;2023-01-30T17:21:02;100272.78;;;16.16;56.24
56514;BME280;62152;52.078;8.414;2023-01-30T17:25:13;100281.00;;;16.16;56.28
56514;BME280;62152;52.078;8.414;2023-01-30T17:29:21;100293.09;;;16.14;56.41
56514;BME280;62152;52.078;8.414;2023-01-30T17:33:22;100308.72;;;16.14;56.72
56514;BME280;62152;52.078;8.414;2023-01-30T17:37:22;100315.78;;;16.15;56.41
56514;BME280;62152;52.078;8.414;2023-01-30T17:41:26;100327.06;;;16.13;56.35
56514;BME280;62152;52.078;8.414;2023-01-30T17:45:28;100334.13;;;16.14;56.38
56514;BME280;62152;52.078;8.414;2023-01-30T17:49:29;100326.88;;;16.50;57.25
56514;BME280;62152;52.078;8.414;2023-01-30T17:53:30;100341.75;;;16.81;57.22
56514;BME280;62152;52.078;8.414;2023-01-30T17:57:34;100348.91;;;16.85;57.35
56514;BME280;62152;52.078;8.414;2023-01-30T18:01:35;100344.88;;;16.95;57.88
56514;BME280;62152;52.078;8.414;2023-01-30T18:05:36;100348.47;;;16.99;57.93
56514;BME280;62152;52.078;8.414;2023-01-30T18:09:37;100356.69;;;16.99;58.51
56514;BME280;62152;52.078;8.414;2023-01-30T18:13:39;100376.28;;;17.01;58.56
56514;BME280;62152;52.078;8.414;2023-01-30T18:17:44;100386.75;;;17.11;58.72
56514;BME280;62152;52.078;8.414;2023-01-30T18:21:47;100388.31;;;17.12;58.22
56514;BME280;62152;52.078;8.414;2023-01-30T18:25:48;100391.41;;;16.79;59.29
56514;BME280;62152;52.078;8.414;2023-01-30T18:29:50;100390.22;;;16.64;59.15
56514;BME280;62152;52.078;8.414;2023-01-30T18:33:51;100390.13;;;16.61;59.26
56514;BME280;62152;52.078;8.414;2023-01-30T18:37:52;100395.50;;;16.57;59.14
56514;BME280;62152;52.078;8.414;2023-01-30T18:41:53;100397.81;;;16.55;58.87
56514;BME280;62152;52.078;8.414;2023-01-30T18:46:02;100408.25;;;16.65;59.84
56514;BME280;62152;52.078;8.414;2023-01-30T18:50:05;100405.50;;;17.09;59.42
56514;BME280;62152;52.078;8.414;2023-01-30T18:54:06;100416.88;;;17.11;59.17
56514;BME280;62152;52.078;8.414;2023-01-30T18:58:07;100427.59;;;17.16;59.59
56514;BME280;62152;52.078;8.414;2023-01-30T19:02:10;100437.75;;;17.16;59.54
56514;BME280;62152;52.078;8.414;2023-01-30T19:06:13;100442.53;;;17.19;59.91
56514;BME280;62152;52.078;8.414;2023-01-30T19:10:15;100444.91;;;17.20;60.07
56514;BME280;62152;52.078;8.414;2023-01-30T19:14:17;100451.97;;;17.21;60.51
56514;BME280;62152;52.078;8.414;2023-01-30T19:18:19;100462.69;;;17.27;60.67
56514;BME280;62152;52.078;8.414;2023-01-30T19:22:20;100463.84;;;17.26;60.10
56514;BME280;62152;52.078;8.414;2023-01-30T19:26:23;100457.19;;;17.27;60.31
56514;BME280;62152;52.078;8.414;2023-01-30T19:30:24;100474.19;;;17.32;61.40
56514;BME280;62152;52.078;8.414;2023-01-30T19:34:26;100473.13;;;17.37;62.53
56514;BME280;62152;52.078;8.414;2023-01-30T19:38:27;100462.66;;;17.42;62.04
56514;BME280;62152;52.078;8.414;2023-01-30T19:42:28;100480.63;;;17.40;62.91
56514;BME280;62152;52.078;8.414;2023-01-30T19:46:29;100488.44;;;17.38;62.82
56514;BME280;62152;52.078;8.414;2023-01-30T19:50:31;100487.72;;;17.41;62.64
56514;BME280;62152;52.078;8.414;2023-01-30T19:54:32;100502.22;;;17.41;62.36
56514;BME280;62152;52.078;8.414;2023-01-30T19:58:33;100516.72;;;17.42;62.50
56514;BME280;62152;52.078;8.414;2023-01-30T20:02:34;100511.94;;;17.39;62.29
56514;BME280;62152;52.078;8.414;2023-01-30T20:06:37;100518.59;;;17.38;62.62
56514;BME280;62152;52.078;8.414;2023-01-30T20:10:41;100537.84;;;17.41;62.41
56514;BME280;62152;52.078;8.414;2023-01-30T20:14:41;100534.84;;;17.46;62.27
56514;BME280;62152;52.078;8.414;2023-01-30T20:18:43;100539.28;;;17.51;62.40
56514;BME280;62152;52.078;8.414;2023-01-30T20:22:46;100542.84;;;17.52;61.90
56514;BME280;62152;52.078;8.414;2023-01-30T20:26:47;100552.66;;;17.53;62.22
56514;BME280;62152;52.078;8.414;2023-01-30T20:30:48;100555.38;;;17.53;62.07
56514;BME280;62152;52.078;8.414;2023-01-30T20:34:49;100565.22;;;17.54;61.85
56514;BME280;62152;52.078;8.414;2023-01-30T20:38:53;100560.06;;;17.52;61.98
56514;BME280;62152;52.078;8.414;2023-01-30T20:42:54;100569.47;;;17.51;61.77
56514;BME280;62152;52.078;8.414;2023-01-30T20:46:57;100580.88;;;17.53;61.53
56514;BME280;62152;52.078;8.414;2023-01-30T20:51:01;100596.16;;;17.54;61.79
56514;BME280;62152;52.078;8.414;2023-01-30T20:55:05;100580.50;;;17.55;61.95
56514;BME280;62152;52.078;8.414;2023-01-30T20:59:07;100593.00;;;17.52;61.57
56514;BME280;62152;52.078;8.414;2023-01-30T21:03:09;100621.22;;;17.53;61.72
56514;BME280;62152;52.078;8.414;2023-01-30T21:07:10;100606.69;;;17.52;61.64
56514;BME280;62152;52.078;8.414;2023-01-30T21:11:14;100605.56;;;17.53;61.40
56514;BME280;62152;52.078;8.414;2023-01-30T21:15:17;100607.13;;;17.54;61.23
56514;BME280;62152;52.078;8.414;2023-01-30T21:19:17;100610.59;;;17.51;61.82
56514;BME280;62152;52.078;8.414;2023-01-30T21:23:18;100610.59;;;17.51;61.68
56514;BME280;62152;52.078;8.414;2023-01-30T21:27:20;100633.22;;;17.48;61.78
56514;BME280;62152;52.078;8.414;2023-01-30T21:31:23;100626.88;;;17.44;61.63
56514;BME280;62152;52.078;8.414;2023-01-30T21:35:24;100623.97;;;17.25;62.08
56514;BME280;62152;52.078;8.414;2023-01-30T21:39:25;100635.09;;;17.16;62.29
56514;BME280;62152;52.078;8.414;2023-01-30T21:43:27;100645.50;;;17.10;61.94
56514;BME280;62152;52.078;8.414;2023-01-30T21:47:28;100642.31;;;17.08;62.41
56514;BME280;62152;52.078;8.414;2023-01-30T21:51:29;100640.72;;;17.07;61.82
56514;BME280;62152;52.078;8.414;2023-01-30T21:55:30;100648.84;;;17.04;61.76